createdAt,value
2023-02-19T00:00:14.385Z,2.997
2023-02-19T00:00:44.169Z,2.997
2023-02-19T00:01:17.193Z,2.997
2023-02-19T00:01:48.254Z,2.997
2023-02-19T00:02:21.218Z,2.997
2023-02-19T00:02:52.068Z,2.997
2023-02-19T00:03:25.164Z,3.606
2023-02-19T00:03:56.112Z,3.606
2023-02-19T00:04:29.054Z,3.606
2023-02-19T00:05:00.064Z,3.606
2023-02-19T00:05:32.990Z,3.606
2023-02-19T00:06:04.074Z,3.606
2023-02-19T00:06:36.901Z,3.606
2023-02-19T00:07:07.862Z,3.606
2023-02-19T00:07:41.023Z,3.606
2023-02-19T00:08:12.001Z,2.997
2023-02-19T00:08:44.645Z,2.997
2023-02-19T00:09:15.813Z,2.997
2023-02-19T00:09:48.750Z,2.997
2023-02-19T00:10:20.117Z,2.997
2023-02-19T00:10:52.600Z,2.997
2023-02-19T00:11:23.794Z,2.997
2023-02-19T00:11:56.638Z,2.997
2023-02-19T00:12:27.790Z,2.997
2023-02-19T00:13:00.631Z,1.193
2023-02-19T00:13:31.650Z,1.193
2023-02-19T00:14:04.768Z,1.193
2023-02-19T00:14:35.884Z,1.193
2023-02-19T00:15:08.688Z,1.193
2023-02-19T00:15:39.594Z,2.997
2023-02-19T00:16:12.560Z,2.997
2023-02-19T00:16:43.666Z,2.997
2023-02-19T00:17:16.346Z,2.997
2023-02-19T00:17:47.523Z,2.997
2023-02-19T00:18:20.588Z,1.803
2023-02-19T00:18:51.556Z,1.803
2023-02-19T00:19:24.252Z,1.803
2023-02-19T00:19:55.365Z,1.803
2023-02-19T00:20:28.283Z,1.803
2023-02-19T00:20:59.424Z,1.803
2023-02-19T00:21:32.236Z,1.803
2023-02-19T00:22:03.319Z,1.803
2023-02-19T00:22:36.321Z,1.803
2023-02-19T00:23:07.377Z,1.803
2023-02-19T00:23:40.207Z,2.997
2023-02-19T00:24:11.363Z,2.997
2023-02-19T00:24:44.653Z,2.997
2023-02-19T00:25:15.267Z,1.193
2023-02-19T00:25:47.985Z,1.193
2023-02-19T00:26:19.149Z,1.193
2023-02-19T00:26:52.067Z,1.193
2023-02-19T00:27:23.162Z,1.193
2023-02-19T00:27:55.885Z,1.193
2023-02-19T00:28:27.065Z,1.193
2023-02-19T00:29:00.122Z,1.193
2023-02-19T00:29:31.232Z,1.193
2023-02-19T00:30:03.924Z,1.193
2023-02-19T00:30:35.468Z,1.193
2023-02-19T00:31:08.362Z,1.193
2023-02-19T00:31:39.169Z,1.193
2023-02-19T00:32:11.818Z,1.193
2023-02-19T00:32:42.873Z,1.193
2023-02-19T00:33:15.800Z,0
2023-02-19T00:33:46.893Z,0
2023-02-19T00:34:19.649Z,0
2023-02-19T00:34:51.025Z,0
2023-02-19T00:35:23.719Z,0
2023-02-19T00:35:54.936Z,0
2023-02-19T00:36:27.886Z,0
2023-02-19T00:36:58.686Z,0
2023-02-19T00:37:31.586Z,0
2023-02-19T00:38:02.739Z,0
2023-02-19T00:38:35.489Z,0
2023-02-19T00:39:06.711Z,0
2023-02-19T00:39:39.590Z,0
2023-02-19T00:40:10.675Z,0
2023-02-19T00:40:43.403Z,0
2023-02-19T00:41:14.554Z,0
2023-02-19T00:41:47.515Z,0
2023-02-19T00:42:18.485Z,0
2023-02-19T00:42:51.417Z,0
2023-02-19T00:43:22.430Z,0
2023-02-19T00:43:55.302Z,0
2023-02-19T00:44:26.300Z,0
2023-02-19T00:44:59.112Z,0
2023-02-19T00:45:30.648Z,0
2023-02-19T00:46:03.329Z,0
2023-02-19T00:46:34.311Z,0
2023-02-19T00:47:07.137Z,0
2023-02-19T00:47:38.327Z,0
2023-02-19T00:48:11.562Z,0
2023-02-19T00:48:42.129Z,0
2023-02-19T00:49:15.075Z,0
2023-02-19T00:49:46.200Z,0
2023-02-19T00:50:19.001Z,0
2023-02-19T00:50:50.019Z,0
2023-02-19T00:51:22.973Z,1.803
2023-02-19T00:51:54.079Z,1.803
2023-02-19T00:52:27.042Z,1.803
2023-02-19T00:52:58.063Z,1.803
2023-02-19T00:53:31.170Z,1.803
2023-02-19T00:54:02.025Z,1.803
2023-02-19T00:54:35.000Z,1.803
2023-02-19T00:55:05.876Z,1.803
2023-02-19T00:55:38.830Z,1.803
2023-02-19T00:56:09.929Z,1.803
2023-02-19T00:56:42.837Z,1.803
2023-02-19T00:57:13.787Z,1.803
2023-02-19T00:57:46.718Z,1.803
2023-02-19T00:58:17.851Z,1.803
2023-02-19T00:58:50.836Z,1.803
2023-02-19T00:59:21.750Z,1.803
2023-02-19T00:59:54.569Z,1.803
2023-02-19T01:00:25.920Z,0
2023-02-19T01:00:58.682Z,0
2023-02-19T01:01:29.601Z,0
2023-02-19T01:02:02.483Z,0
2023-02-19T01:02:33.665Z,0
2023-02-19T01:03:06.684Z,0
2023-02-19T01:03:37.514Z,0
2023-02-19T01:04:10.572Z,0
2023-02-19T01:04:41.617Z,0
2023-02-19T01:05:14.468Z,0
2023-02-19T01:05:46.083Z,0
2023-02-19T01:06:18.360Z,0
2023-02-19T01:06:49.508Z,1.193
2023-02-19T01:07:22.333Z,1.193
2023-02-19T01:07:53.349Z,1.193
2023-02-19T01:08:26.249Z,1.193
2023-02-19T01:08:57.406Z,1.193
2023-02-19T01:09:30.573Z,1.193
2023-02-19T01:10:01.743Z,1.193
2023-02-19T01:10:34.191Z,1.193
2023-02-19T01:11:05.384Z,1.193
2023-02-19T01:11:38.029Z,2.997
2023-02-19T01:12:09.237Z,2.997
2023-02-19T01:12:42.114Z,2.997
2023-02-19T01:13:13.218Z,2.997
2023-02-19T01:13:46.116Z,2.997
2023-02-19T01:14:17.101Z,2.997
2023-02-19T01:14:50.083Z,2.997
2023-02-19T01:15:21.530Z,2.997
2023-02-19T01:15:53.958Z,2.997
2023-02-19T01:16:25.092Z,1.803
2023-02-19T01:16:58.050Z,1.803
2023-02-19T01:17:29.079Z,1.803
2023-02-19T01:18:01.767Z,1.803
2023-02-19T01:18:32.962Z,1.803
2023-02-19T01:19:05.925Z,1.803
2023-02-19T01:19:37.003Z,2.997
2023-02-19T01:20:09.758Z,2.997
2023-02-19T01:20:41.043Z,2.997
2023-02-19T01:21:13.824Z,1.193
2023-02-19T01:21:44.766Z,1.193
2023-02-19T01:22:17.663Z,1.193
2023-02-19T01:22:48.781Z,1.193
2023-02-19T01:23:21.803Z,1.193
2023-02-19T01:23:52.902Z,1.193
2023-02-19T01:24:25.610Z,1.193
2023-02-19T01:24:56.666Z,1.193
2023-02-19T01:25:29.603Z,1.193
2023-02-19T01:26:00.852Z,1.193
2023-02-19T01:26:33.494Z,1.193
2023-02-19T01:27:04.604Z,1.193
2023-02-19T01:27:37.638Z,1.193
2023-02-19T01:28:08.530Z,1.193
2023-02-19T01:28:41.562Z,1.193
2023-02-19T01:29:12.545Z,0
2023-02-19T01:29:45.410Z,0
2023-02-19T01:30:16.561Z,0
2023-02-19T01:30:49.172Z,0
2023-02-19T01:31:20.692Z,0
2023-02-19T01:31:53.370Z,0
2023-02-19T01:32:24.407Z,0
2023-02-19T01:32:57.229Z,0
2023-02-19T01:33:28.332Z,0
2023-02-19T01:34:01.379Z,1.803
2023-02-19T01:34:32.232Z,1.803
2023-02-19T01:35:05.152Z,1.803
2023-02-19T01:35:36.285Z,1.803
2023-02-19T01:36:09.208Z,1.803
2023-02-19T01:36:40.242Z,1.803
2023-02-19T01:37:13.132Z,1.803
2023-02-19T01:37:44.128Z,1.803
2023-02-19T01:38:17.093Z,2.997
2023-02-19T01:38:48.092Z,2.997
2023-02-19T01:39:20.993Z,2.997
2023-02-19T01:39:52.125Z,2.997
2023-02-19T01:40:25.062Z,2.997
2023-02-19T01:40:55.976Z,2.997
2023-02-19T01:41:29.528Z,2.997
2023-02-19T01:41:59.951Z,2.997
2023-02-19T01:42:32.983Z,2.997
2023-02-19T01:43:03.818Z,1.193
2023-02-19T01:43:36.844Z,1.193
2023-02-19T01:44:08.088Z,1.193
2023-02-19T01:44:40.980Z,1.193
2023-02-19T01:45:11.994Z,1.193
2023-02-19T01:45:44.676Z,1.193
2023-02-19T01:46:15.946Z,2.997
2023-02-19T01:46:48.865Z,2.997
2023-02-19T01:47:19.730Z,1.803
2023-02-19T01:47:52.616Z,1.803
2023-02-19T01:48:23.789Z,1.803
2023-02-19T01:48:56.627Z,1.803
2023-02-19T01:49:27.601Z,1.803
2023-02-19T01:50:00.773Z,1.803
2023-02-19T01:50:31.716Z,1.803
2023-02-19T01:51:04.594Z,1.803
2023-02-19T01:51:35.568Z,1.803
2023-02-19T01:52:08.457Z,1.803
2023-02-19T01:52:39.594Z,1.803
2023-02-19T01:53:12.478Z,1.803
2023-02-19T01:53:43.426Z,1.803
2023-02-19T01:54:16.369Z,1.803
2023-02-19T01:54:47.467Z,1.803
2023-02-19T01:55:20.590Z,1.803
2023-02-19T01:55:51.457Z,1.803
2023-02-19T01:56:24.270Z,0
2023-02-19T01:56:55.390Z,0
2023-02-19T01:57:28.151Z,0
2023-02-19T01:57:59.234Z,0
2023-02-19T01:58:32.265Z,0
2023-02-19T01:59:03.312Z,0
2023-02-19T01:59:36.294Z,0
2023-02-19T02:00:07.878Z,0
2023-02-19T02:00:40.121Z,0
2023-02-19T02:01:11.784Z,0
2023-02-19T02:01:44.444Z,0
2023-02-19T02:02:15.081Z,0
2023-02-19T02:02:47.894Z,0
2023-02-19T02:03:19.182Z,0
2023-02-19T02:03:51.902Z,0
2023-02-19T02:04:22.984Z,0
2023-02-19T02:04:55.931Z,0
2023-02-19T02:05:27.050Z,0
2023-02-19T02:05:59.703Z,0
2023-02-19T02:06:31.031Z,1.193
2023-02-19T02:07:03.808Z,1.193
2023-02-19T02:07:35.010Z,1.193
2023-02-19T02:08:07.708Z,1.193
2023-02-19T02:08:38.830Z,1.193
2023-02-19T02:09:11.831Z,1.193
2023-02-19T02:09:42.922Z,1.193
2023-02-19T02:10:15.633Z,1.193
2023-02-19T02:10:46.737Z,1.193
2023-02-19T02:11:19.680Z,1.193
2023-02-19T02:11:50.903Z,1.193
2023-02-19T02:12:23.422Z,1.193
2023-02-19T02:12:54.639Z,1.193
2023-02-19T02:13:27.654Z,1.193
2023-02-19T02:13:58.726Z,1.193
2023-02-19T02:14:31.499Z,1.193
2023-02-19T02:15:02.713Z,1.193
2023-02-19T02:15:35.634Z,1.193
2023-02-19T02:16:06.691Z,0
2023-02-19T02:16:39.355Z,0
2023-02-19T02:17:10.572Z,0
2023-02-19T02:17:43.360Z,0
2023-02-19T02:18:14.505Z,0
2023-02-19T02:18:47.362Z,0
2023-02-19T02:19:18.342Z,0
2023-02-19T02:19:51.450Z,0
2023-02-19T02:20:22.263Z,0
2023-02-19T02:20:55.280Z,0
2023-02-19T02:21:26.347Z,0
2023-02-19T02:21:59.388Z,0
2023-02-19T02:22:30.161Z,0
2023-02-19T02:23:03.207Z,0
2023-02-19T02:23:34.525Z,0
2023-02-19T02:24:07.159Z,0
2023-02-19T02:24:38.047Z,0
2023-02-19T02:25:11.119Z,0
2023-02-19T02:25:42.181Z,0
2023-02-19T02:26:15.056Z,0
2023-02-19T02:26:46.001Z,0
2023-02-19T02:27:18.919Z,0
2023-02-19T02:27:50.050Z,0
2023-02-19T02:28:23.119Z,0
2023-02-19T02:28:53.922Z,0
2023-02-19T02:29:26.772Z,0
2023-02-19T02:29:57.980Z,0
2023-02-19T02:30:31.305Z,0
2023-02-19T02:31:01.959Z,0
2023-02-19T02:31:35.036Z,0
2023-02-19T02:32:05.948Z,0
2023-02-19T02:32:38.620Z,0
2023-02-19T02:33:09.758Z,0
2023-02-19T02:33:42.692Z,0
2023-02-19T02:34:13.836Z,0
2023-02-19T02:34:46.521Z,0
2023-02-19T02:35:17.699Z,0
2023-02-19T02:35:50.753Z,0
2023-02-19T02:36:21.792Z,0
2023-02-19T02:36:54.476Z,0
2023-02-19T02:37:25.558Z,0
2023-02-19T02:37:58.534Z,0
2023-02-19T02:38:29.641Z,0
2023-02-19T02:39:02.378Z,0
2023-02-19T02:39:33.595Z,0
2023-02-19T02:40:06.506Z,0
2023-02-19T02:40:37.602Z,0
2023-02-19T02:41:10.686Z,0
2023-02-19T02:41:41.679Z,0
2023-02-19T02:42:14.588Z,0
2023-02-19T02:42:45.497Z,0
2023-02-19T02:43:18.420Z,0
2023-02-19T02:43:49.360Z,0
2023-02-19T02:44:22.460Z,0
2023-02-19T02:44:53.406Z,0
2023-02-19T02:45:26.538Z,0
2023-02-19T02:45:57.360Z,0
2023-02-19T02:46:30.654Z,0
2023-02-19T02:47:01.514Z,0
2023-02-19T02:47:34.716Z,0
2023-02-19T02:48:05.211Z,1.803
2023-02-19T02:48:38.392Z,1.803
2023-02-19T02:49:09.241Z,1.803
2023-02-19T02:49:42.187Z,1.803
2023-02-19T02:50:13.125Z,1.803
2023-02-19T02:50:46.237Z,1.803
2023-02-19T02:51:17.187Z,1.803
2023-02-19T02:51:49.998Z,1.803
2023-02-19T02:52:21.157Z,1.803
2023-02-19T02:52:53.900Z,1.803
2023-02-19T02:53:25.073Z,1.803
2023-02-19T02:53:57.792Z,1.803
2023-02-19T02:54:29.079Z,1.803
2023-02-19T02:55:02.800Z,1.803
2023-02-19T02:55:32.829Z,1.803
2023-02-19T02:56:05.782Z,1.803
2023-02-19T02:56:37.071Z,1.803
2023-02-19T02:57:09.806Z,0
2023-02-19T02:57:40.808Z,0
2023-02-19T02:58:13.655Z,0
2023-02-19T02:58:44.708Z,0
2023-02-19T02:59:17.599Z,0
2023-02-19T02:59:48.573Z,0
2023-02-19T03:00:21.929Z,0
2023-02-19T03:00:52.863Z,0
2023-02-19T03:01:26.734Z,0
2023-02-19T03:01:56.579Z,0
2023-02-19T03:02:29.540Z,0
2023-02-19T03:03:00.783Z,0
2023-02-19T03:03:33.713Z,0
2023-02-19T03:04:04.784Z,0
2023-02-19T03:04:37.499Z,0
2023-02-19T03:05:08.517Z,0
2023-02-19T03:05:41.534Z,0
2023-02-19T03:06:12.480Z,1.803
2023-02-19T03:06:45.471Z,1.803
2023-02-19T03:07:16.432Z,1.803
2023-02-19T03:07:49.560Z,1.803
2023-02-19T03:08:20.361Z,1.803
2023-02-19T03:08:53.441Z,1.803
2023-02-19T03:09:24.388Z,1.803
2023-02-19T03:09:57.389Z,1.803
2023-02-19T03:10:28.255Z,1.803
2023-02-19T03:11:01.470Z,1.803
2023-02-19T03:11:32.273Z,1.803
2023-02-19T03:12:05.009Z,1.803
2023-02-19T03:12:36.117Z,1.803
2023-02-19T03:13:09.465Z,1.803
2023-02-19T03:13:40.148Z,1.803
2023-02-19T03:14:13.011Z,1.803
2023-02-19T03:14:44.043Z,1.803
2023-02-19T03:15:17.199Z,0
2023-02-19T03:15:48.058Z,0
2023-02-19T03:16:21.098Z,0
2023-02-19T03:16:52.026Z,0
2023-02-19T03:17:25.111Z,0
2023-02-19T03:17:55.978Z,0
2023-02-19T03:18:28.953Z,0
2023-02-19T03:18:59.885Z,0
2023-02-19T03:19:32.979Z,0
2023-02-19T03:20:03.784Z,0
2023-02-19T03:20:36.880Z,0
2023-02-19T03:21:07.926Z,0
2023-02-19T03:21:40.913Z,0
2023-02-19T03:22:11.739Z,0
2023-02-19T03:22:45.682Z,0
2023-02-19T03:23:15.724Z,0
2023-02-19T03:23:48.652Z,0
2023-02-19T03:24:19.569Z,0
2023-02-19T03:24:52.541Z,0
2023-02-19T03:25:23.636Z,0
2023-02-19T03:25:56.642Z,0
2023-02-19T03:26:27.508Z,0
2023-02-19T03:27:00.584Z,0
2023-02-19T03:27:31.652Z,0
2023-02-19T03:28:04.456Z,0
2023-02-19T03:28:35.421Z,0
2023-02-19T03:29:08.309Z,0
2023-02-19T03:29:39.456Z,0
2023-02-19T03:30:12.677Z,0
2023-02-19T03:30:43.296Z,0
2023-02-19T03:31:16.400Z,0
2023-02-19T03:31:47.511Z,0
2023-02-19T03:32:20.255Z,0
2023-02-19T03:32:51.302Z,0
2023-02-19T03:33:24.336Z,0
2023-02-19T03:33:55.331Z,0
2023-02-19T03:34:28.206Z,0
2023-02-19T03:34:59.144Z,0
2023-02-19T03:35:32.116Z,0
2023-02-19T03:36:03.274Z,0
2023-02-19T03:36:36.144Z,0
2023-02-19T03:37:07.081Z,0
2023-02-19T03:37:40.054Z,0
2023-02-19T03:38:11.239Z,0
2023-02-19T03:38:44.136Z,0
2023-02-19T03:39:14.962Z,0
2023-02-19T03:39:47.913Z,0
2023-02-19T03:40:18.975Z,0
2023-02-19T03:40:51.996Z,0
2023-02-19T03:41:22.905Z,0
2023-02-19T03:41:55.784Z,0
2023-02-19T03:42:26.975Z,0
2023-02-19T03:42:59.709Z,0
2023-02-19T03:43:30.916Z,0
2023-02-19T03:44:03.850Z,0
2023-02-19T03:44:35.390Z,0
2023-02-19T03:45:08.291Z,0
2023-02-19T03:45:38.798Z,0
2023-02-19T03:46:11.733Z,0
2023-02-19T03:46:42.774Z,0
2023-02-19T03:47:15.556Z,0
2023-02-19T03:47:46.687Z,0
2023-02-19T03:48:19.676Z,0
2023-02-19T03:48:50.823Z,0
2023-02-19T03:49:23.409Z,0
2023-02-19T03:49:54.498Z,0
2023-02-19T03:50:27.497Z,0
2023-02-19T03:50:58.628Z,0
2023-02-19T03:51:31.497Z,0
2023-02-19T03:52:02.508Z,0
2023-02-19T03:52:35.421Z,0
2023-02-19T03:53:06.510Z,0
2023-02-19T03:53:39.358Z,0
2023-02-19T03:54:10.679Z,0
2023-02-19T03:54:43.327Z,0
2023-02-19T03:55:14.490Z,0
2023-02-19T03:55:47.125Z,0
2023-02-19T03:56:18.312Z,0
2023-02-19T03:56:51.272Z,0
2023-02-19T03:57:22.342Z,0
2023-02-19T03:57:55.079Z,0
2023-02-19T03:58:26.251Z,0
2023-02-19T03:58:59.088Z,0
2023-02-19T03:59:30.377Z,0
2023-02-19T04:00:03.258Z,0
2023-02-19T04:00:34.086Z,0
2023-02-19T04:01:07.165Z,0
2023-02-19T04:01:38.187Z,0
2023-02-19T04:02:11.357Z,0
2023-02-19T04:02:42.056Z,0
2023-02-19T04:03:14.935Z,0
2023-02-19T04:03:46.464Z,0
2023-02-19T04:04:18.777Z,0
2023-02-19T04:04:50.042Z,0
2023-02-19T04:05:22.752Z,0
2023-02-19T04:05:54.026Z,0
2023-02-19T04:06:26.854Z,0
2023-02-19T04:06:57.815Z,0
2023-02-19T04:07:30.843Z,0
2023-02-19T04:08:01.950Z,0
2023-02-19T04:08:34.670Z,0
2023-02-19T04:09:05.727Z,0
2023-02-19T04:09:38.684Z,0
2023-02-19T04:10:09.852Z,0
2023-02-19T04:10:42.569Z,0
2023-02-19T04:11:13.747Z,0
2023-02-19T04:11:46.656Z,0
2023-02-19T04:12:17.629Z,0
2023-02-19T04:12:50.585Z,1.193
2023-02-19T04:13:21.641Z,1.193
2023-02-19T04:13:54.538Z,1.193
2023-02-19T04:14:25.685Z,1.193
2023-02-19T04:14:58.432Z,1.193
2023-02-19T04:15:29.688Z,1.193
2023-02-19T04:16:02.516Z,1.193
2023-02-19T04:16:33.362Z,1.193
2023-02-19T04:17:06.325Z,1.193
2023-02-19T04:17:37.414Z,1.193
2023-02-19T04:18:10.527Z,1.193
2023-02-19T04:18:41.372Z,1.193
2023-02-19T04:19:14.245Z,1.193
2023-02-19T04:19:45.312Z,1.193
2023-02-19T04:20:18.347Z,1.193
2023-02-19T04:20:49.258Z,2.997
2023-02-19T04:21:22.220Z,2.997
2023-02-19T04:21:53.302Z,1.803
2023-02-19T04:22:26.300Z,1.803
2023-02-19T04:22:57.122Z,2.997
2023-02-19T04:23:30.052Z,2.997
2023-02-19T04:24:01.356Z,2.997
2023-02-19T04:24:33.980Z,2.997
2023-02-19T04:25:05.081Z,2.997
2023-02-19T04:25:37.889Z,2.997
2023-02-19T04:26:09.124Z,2.997
2023-02-19T04:26:42.061Z,4.800
2023-02-19T04:27:12.980Z,4.800
2023-02-19T04:27:45.889Z,4.800
2023-02-19T04:28:17.165Z,4.800
2023-02-19T04:28:49.943Z,4.800
2023-02-19T04:29:20.997Z,4.800
2023-02-19T04:29:53.776Z,2.997
2023-02-19T04:30:25.196Z,2.997
2023-02-19T04:30:57.846Z,2.997
2023-02-19T04:31:28.820Z,2.997
2023-02-19T04:32:02.087Z,2.997
2023-02-19T04:32:32.911Z,2.997
2023-02-19T04:33:05.878Z,1.803
2023-02-19T04:33:37.186Z,1.803
2023-02-19T04:34:09.614Z,1.803
2023-02-19T04:34:40.833Z,1.803
2023-02-19T04:35:13.684Z,1.803
2023-02-19T04:35:44.606Z,1.803
2023-02-19T04:36:17.644Z,1.193
2023-02-19T04:36:48.657Z,1.193
2023-02-19T04:37:21.499Z,1.193
2023-02-19T04:37:52.561Z,1.193
2023-02-19T04:38:25.587Z,1.193
2023-02-19T04:38:56.539Z,1.193
2023-02-19T04:39:29.536Z,1.193
2023-02-19T04:40:00.664Z,1.193
2023-02-19T04:40:33.373Z,1.193
2023-02-19T04:41:04.539Z,1.193
2023-02-19T04:41:37.454Z,1.193
2023-02-19T04:42:08.291Z,1.193
2023-02-19T04:42:41.356Z,1.193
2023-02-19T04:43:12.408Z,1.193
2023-02-19T04:43:45.275Z,1.193
2023-02-19T04:44:16.246Z,1.193
2023-02-19T04:44:49.225Z,1.193
2023-02-19T04:45:20.651Z,1.193
2023-02-19T04:45:53.349Z,0
2023-02-19T04:46:24.276Z,0
2023-02-19T04:46:57.083Z,0
2023-02-19T04:47:28.221Z,0
2023-02-19T04:48:00.953Z,0
2023-02-19T04:48:32.109Z,0
2023-02-19T04:49:05.164Z,0
2023-02-19T04:49:36.115Z,0
2023-02-19T04:50:08.883Z,0
2023-02-19T04:50:39.988Z,0
2023-02-19T04:51:13.209Z,0
2023-02-19T04:51:44.103Z,0
2023-02-19T04:52:16.677Z,0
2023-02-19T04:52:47.870Z,0
2023-02-19T04:53:21.834Z,0
2023-02-19T04:53:51.947Z,0
2023-02-19T04:54:24.723Z,0
2023-02-19T04:54:55.798Z,0
2023-02-19T04:55:28.813Z,0
2023-02-19T04:55:59.879Z,0
2023-02-19T04:56:32.794Z,0
2023-02-19T04:57:03.803Z,0
2023-02-19T04:57:36.756Z,0
2023-02-19T04:58:07.816Z,0
2023-02-19T04:58:40.856Z,0
2023-02-19T04:59:11.702Z,0
2023-02-19T04:59:44.528Z,0
2023-02-19T05:00:16.417Z,0
2023-02-19T05:00:48.461Z,0
2023-02-19T05:01:19.694Z,0
2023-02-19T05:01:52.545Z,0
2023-02-19T05:02:23.467Z,0
2023-02-19T05:02:56.289Z,0
2023-02-19T05:03:27.532Z,0
2023-02-19T05:04:00.856Z,0
2023-02-19T05:04:31.531Z,0
2023-02-19T05:05:04.405Z,0
2023-02-19T05:05:35.399Z,0
2023-02-19T05:06:08.478Z,0
2023-02-19T05:06:39.235Z,0
2023-02-19T05:07:12.163Z,0
2023-02-19T05:07:43.312Z,0
2023-02-19T05:08:17.454Z,0
2023-02-19T05:08:47.349Z,1.803
2023-02-19T05:09:20.132Z,1.803
2023-02-19T05:09:51.334Z,1.803
2023-02-19T05:10:24.093Z,1.803
2023-02-19T05:10:55.102Z,2.997
2023-02-19T05:11:28.046Z,2.997
2023-02-19T05:11:59.171Z,4.800
2023-02-19T05:12:32.130Z,4.800
2023-02-19T05:13:03.001Z,4.800
2023-02-19T05:13:35.908Z,5.994
2023-02-19T05:14:07.075Z,5.994
2023-02-19T05:14:40.042Z,5.994
2023-02-19T05:15:11.287Z,5.994
2023-02-19T05:15:44.851Z,5.994
2023-02-19T05:16:15.006Z,7.797
2023-02-19T05:16:47.979Z,7.797
2023-02-19T05:17:18.791Z,7.797
2023-02-19T05:17:51.804Z,5.994
2023-02-19T05:18:22.885Z,7.188
2023-02-19T05:18:55.799Z,7.188
2023-02-19T05:19:26.752Z,7.188
2023-02-19T05:19:59.721Z,5.994
2023-02-19T05:20:30.886Z,7.797
2023-02-19T05:21:03.778Z,5.994
2023-02-19T05:21:34.790Z,5.994
2023-02-19T05:22:07.578Z,7.797
2023-02-19T05:22:38.724Z,7.797
2023-02-19T05:23:11.772Z,6.604
2023-02-19T05:23:42.618Z,6.604
2023-02-19T05:24:15.632Z,7.797
2023-02-19T05:24:46.682Z,7.797
2023-02-19T05:25:19.596Z,7.797
2023-02-19T05:25:50.596Z,5.994
2023-02-19T05:26:23.367Z,5.994
2023-02-19T05:26:54.603Z,5.994
2023-02-19T05:27:27.634Z,5.994
2023-02-19T05:27:58.447Z,4.800
2023-02-19T05:28:31.410Z,4.800
2023-02-19T05:29:02.499Z,6.604
2023-02-19T05:29:35.887Z,6.604
2023-02-19T05:30:06.593Z,4.800
2023-02-19T05:30:39.356Z,4.800
2023-02-19T05:31:10.802Z,4.800
2023-02-19T05:31:43.323Z,4.800
2023-02-19T05:32:14.244Z,2.997
2023-02-19T05:32:47.244Z,2.997
2023-02-19T05:33:18.347Z,2.997
2023-02-19T05:33:51.562Z,1.803
2023-02-19T05:34:22.161Z,1.803
2023-02-19T05:34:55.095Z,1.803
2023-02-19T05:35:26.267Z,1.803
2023-02-19T05:35:59.185Z,1.803
2023-02-19T05:36:30.158Z,1.803
2023-02-19T05:37:03.125Z,1.803
2023-02-19T05:37:34.181Z,1.803
2023-02-19T05:38:06.852Z,0
2023-02-19T05:38:38.030Z,0
2023-02-19T05:39:10.983Z,0
2023-02-19T05:39:42.131Z,0
2023-02-19T05:40:14.781Z,0
2023-02-19T05:40:45.894Z,0
2023-02-19T05:41:18.962Z,0
2023-02-19T05:41:49.995Z,0
2023-02-19T05:42:22.713Z,0
2023-02-19T05:42:53.820Z,0
2023-02-19T05:43:26.744Z,0
2023-02-19T05:43:57.946Z,0
2023-02-19T05:44:30.686Z,0
2023-02-19T05:45:02.417Z,0
2023-02-19T05:45:34.748Z,0
2023-02-19T05:46:05.848Z,0
2023-02-19T05:46:38.615Z,0
2023-02-19T05:47:09.669Z,0
2023-02-19T05:47:42.515Z,0
2023-02-19T05:48:13.717Z,0
2023-02-19T05:48:46.487Z,0
2023-02-19T05:49:17.576Z,0
2023-02-19T05:49:50.606Z,0
2023-02-19T05:50:21.651Z,0
2023-02-19T05:50:54.444Z,0
2023-02-19T05:51:25.512Z,0
2023-02-19T05:51:58.447Z,0
2023-02-19T05:52:29.336Z,0
2023-02-19T05:53:02.332Z,0
2023-02-19T05:53:33.387Z,0
2023-02-19T05:54:06.409Z,0
2023-02-19T05:54:37.237Z,0
2023-02-19T05:55:10.206Z,0
2023-02-19T05:55:41.395Z,0
2023-02-19T05:56:14.248Z,0
2023-02-19T05:56:45.220Z,0
2023-02-19T05:57:18.096Z,0
2023-02-19T05:57:49.205Z,0
2023-02-19T05:58:22.147Z,0
2023-02-19T05:58:53.117Z,0
2023-02-19T05:59:26.085Z,0
2023-02-19T05:59:57.194Z,0
2023-02-19T06:00:30.419Z,0
2023-02-19T06:01:01.083Z,0
2023-02-19T06:01:34.027Z,0
2023-02-19T06:02:05.101Z,0
2023-02-19T06:02:38.154Z,0
2023-02-19T06:03:08.949Z,0
2023-02-19T06:03:41.968Z,0
2023-02-19T06:04:13.005Z,0
2023-02-19T06:04:45.992Z,0
2023-02-19T06:05:16.805Z,0
2023-02-19T06:05:49.742Z,0
2023-02-19T06:06:21.002Z,0
2023-02-19T06:06:53.909Z,0
2023-02-19T06:07:24.781Z,0
2023-02-19T06:07:57.684Z,0
2023-02-19T06:08:28.851Z,0
2023-02-19T06:09:01.853Z,0
2023-02-19T06:09:32.695Z,0
2023-02-19T06:10:05.591Z,0
2023-02-19T06:10:36.705Z,0
2023-02-19T06:11:09.948Z,0
2023-02-19T06:11:40.658Z,0
2023-02-19T06:12:13.500Z,0
2023-02-19T06:12:44.647Z,0
2023-02-19T06:13:17.947Z,0
2023-02-19T06:13:48.451Z,0
2023-02-19T06:14:21.489Z,0
2023-02-19T06:14:52.557Z,0
2023-02-19T06:15:25.626Z,0
2023-02-19T06:15:56.520Z,0
2023-02-19T06:16:29.390Z,0
2023-02-19T06:17:00.490Z,0
2023-02-19T06:17:33.409Z,0
2023-02-19T06:18:04.346Z,0
2023-02-19T06:18:37.294Z,0
2023-02-19T06:19:08.388Z,0
2023-02-19T06:19:41.465Z,0
2023-02-19T06:20:12.257Z,0
2023-02-19T06:20:45.201Z,0
2023-02-19T06:21:16.297Z,0
2023-02-19T06:21:49.045Z,0
2023-02-19T06:22:20.178Z,0
2023-02-19T06:22:53.101Z,0
2023-02-19T06:23:24.322Z,0
2023-02-19T06:23:57.105Z,0
2023-02-19T06:24:28.093Z,0
2023-02-19T06:25:01.437Z,0
2023-02-19T06:25:32.143Z,0
2023-02-19T06:26:04.861Z,0
2023-02-19T06:26:36.064Z,0
2023-02-19T06:27:08.908Z,0
2023-02-19T06:27:40.057Z,0
2023-02-19T06:28:12.908Z,0
2023-02-19T06:28:43.953Z,0
2023-02-19T06:29:16.733Z,0
2023-02-19T06:29:47.911Z,0
2023-02-19T06:30:21.030Z,0
2023-02-19T06:30:51.876Z,0
2023-02-19T06:31:24.938Z,0
2023-02-19T06:31:56.101Z,0
2023-02-19T06:32:28.640Z,0
2023-02-19T06:32:59.804Z,0
2023-02-19T06:33:32.683Z,0
2023-02-19T06:34:03.912Z,0
2023-02-19T06:34:36.725Z,0
2023-02-19T06:35:07.666Z,0
2023-02-19T06:35:40.793Z,0
2023-02-19T06:36:11.729Z,0
2023-02-19T06:36:44.445Z,0
2023-02-19T06:37:15.491Z,0
2023-02-19T06:37:48.502Z,0
2023-02-19T06:38:19.593Z,0
2023-02-19T06:38:52.301Z,0
2023-02-19T06:39:23.510Z,0
2023-02-19T06:39:56.348Z,0
2023-02-19T06:40:27.565Z,0
2023-02-19T06:41:00.371Z,0
2023-02-19T06:41:31.545Z,0
2023-02-19T06:42:04.305Z,0
2023-02-19T06:42:36.139Z,0
2023-02-19T06:43:08.339Z,0
2023-02-19T06:43:39.379Z,0
2023-02-19T06:44:12.285Z,0
2023-02-19T06:44:43.356Z,0
2023-02-19T06:45:16.337Z,0
2023-02-19T06:45:47.244Z,0
2023-02-19T06:46:20.206Z,0
2023-02-19T06:46:51.447Z,0
2023-02-19T06:47:25.488Z,0
2023-02-19T06:47:55.251Z,0
2023-02-19T06:48:28.108Z,0
2023-02-19T06:48:59.231Z,0
2023-02-19T06:49:31.986Z,0
2023-02-19T06:50:03.087Z,0
2023-02-19T06:50:36.001Z,0
2023-02-19T06:51:06.985Z,0
2023-02-19T06:51:39.919Z,0
2023-02-19T06:52:11.066Z,0
2023-02-19T06:52:43.889Z,0
2023-02-19T06:53:15.127Z,0
2023-02-19T06:53:47.842Z,0
2023-02-19T06:54:18.855Z,0
2023-02-19T06:54:51.762Z,0
2023-02-19T06:55:22.996Z,0
2023-02-19T06:55:55.699Z,0
2023-02-19T06:56:26.825Z,0
2023-02-19T06:56:59.753Z,0
2023-02-19T06:57:30.741Z,0
2023-02-19T06:58:04.326Z,0
2023-02-19T06:58:34.742Z,0
2023-02-19T06:59:07.640Z,0
2023-02-19T06:59:38.558Z,0
2023-02-19T07:00:12.055Z,0
2023-02-19T07:00:42.702Z,0
2023-02-19T07:01:15.742Z,0
2023-02-19T07:01:46.546Z,0
2023-02-19T07:02:19.423Z,0
2023-02-19T07:02:50.618Z,0
2023-02-19T07:03:23.499Z,0
2023-02-19T07:03:54.449Z,0
2023-02-19T07:04:27.353Z,0
2023-02-19T07:04:58.382Z,0
2023-02-19T07:05:31.382Z,0
2023-02-19T07:06:02.331Z,0
2023-02-19T07:06:35.448Z,0
2023-02-19T07:07:06.350Z,0
2023-02-19T07:07:39.295Z,0
2023-02-19T07:08:10.214Z,0
2023-02-19T07:08:43.238Z,0
2023-02-19T07:09:14.259Z,0
2023-02-19T07:09:47.213Z,0
2023-02-19T07:10:18.231Z,0
2023-02-19T07:10:51.189Z,0
2023-02-19T07:11:22.259Z,0
2023-02-19T07:11:55.122Z,0
2023-02-19T07:12:26.034Z,0
2023-02-19T07:12:58.970Z,0
2023-02-19T07:13:30.129Z,0
2023-02-19T07:14:03.048Z,0
2023-02-19T07:14:33.980Z,0
2023-02-19T07:15:07.111Z,0
2023-02-19T07:15:38.109Z,0
2023-02-19T07:16:11.965Z,0
2023-02-19T07:16:42.021Z,0
2023-02-19T07:17:14.802Z,0
2023-02-19T07:17:46.345Z,0
2023-02-19T07:18:19.004Z,0
2023-02-19T07:18:49.871Z,0
2023-02-19T07:19:22.789Z,0
2023-02-19T07:19:53.871Z,0
2023-02-19T07:20:26.809Z,0
2023-02-19T07:20:57.735Z,0
2023-02-19T07:21:30.756Z,0
2023-02-19T07:22:01.756Z,0
2023-02-19T07:22:35.593Z,0
2023-02-19T07:23:05.596Z,0
2023-02-19T07:23:38.625Z,0
2023-02-19T07:24:09.661Z,0
2023-02-19T07:24:42.555Z,0
2023-02-19T07:25:13.502Z,0
2023-02-19T07:25:46.487Z,0
2023-02-19T07:26:17.697Z,0
2023-02-19T07:26:50.545Z,0